Time;durP1;ratioP1;P1;durP2;ratioP2;P2;SDS_P1;SDS_P2;PMS_P1;PMS_P2;Temp;Humidity;BMP_temperature;BMP_pressure;BME280_temperature;BME280_humidity;BME280_pressure;Samples;Min_cycle;Max_cycle;Signal;HPM_P1;HPM_P2
2022/11/30 00:02:05;;;;;;;;;;;;;;;6.62;56.42;101749.75;5042865;28;20331;-60
2022/11/30 00:04:31;;;;;;;;;;;;;;;6.65;56.09;101755.00;5036980;28;19926;-61
2022/11/30 00:06:56;;;;;;;;;;;;;;;6.69;55.98;101750.69;5034691;28;20024;-59
2022/11/30 00:09:22;;;;;;;;;;;;;;;6.61;56.32;101752.31;5035989;28;19967;-61
2022/11/30 00:11:47;;;;;;;;;;;;;;;6.57;56.22;101750.50;5036789;28;19925;-60
2022/11/30 00:14:12;;;;;;;;;;;;;;;6.62;56.88;101751.44;5035765;28;19921;-61
2022/11/30 00:16:37;;;;;;;;;;;;;;;6.65;56.09;101751.50;5042597;28;20398;-60
2022/11/30 00:19:03;;;;;;;;;;;;;;;6.61;56.74;101752.31;5050048;28;20336;-59
2022/11/30 00:21:28;;;;;;;;;;;;;;;6.61;56.33;101747.09;5037356;28;19925;-61
2022/11/30 00:23:53;;;;;;;;;;;;;;;6.60;56.30;101754.06;5035699;28;19932;-60
2022/11/30 00:26:21;;;;;;;;;;;;;;;6.49;56.59;101753.00;5035951;28;19921;-60
2022/11/30 00:28:47;;;;;;;;;;;;;;;6.56;56.77;101752.25;5049169;28;19921;-61
2022/11/30 00:31:13;;;;;;;;;;;;;;;6.61;56.24;101752.31;5040782;28;19928;-60
2022/11/30 00:33:39;;;;;;;;;;;;;;;6.79;56.07;101746.53;5036727;28;19921;-60
2022/11/30 00:36:05;;;;;;;;;;;;;;;6.65;55.83;101749.78;5037147;28;19917;-60
2022/11/30 00:38:31;;;;;;;;;;;;;;;6.63;56.04;101743.66;5046393;28;20380;-60
2022/11/30 00:40:57;;;;;;;;;;;;;;;6.57;56.25;101748.78;5034849;28;19932;-59
2022/11/30 00:43:22;;;;;;;;;;;;;;;6.66;56.28;101751.56;5038518;28;19917;-60
2022/11/30 00:45:47;;;;;;;;;;;;;;;6.63;55.95;101750.63;5041491;28;20396;-60
2022/11/30 00:48:13;;;;;;;;;;;;;;;6.60;56.22;101750.56;5044057;28;19925;-59
2022/11/30 00:50:38;;;;;;;;;;;;;;;6.63;56.07;101748.00;5046464;28;19936;-59
2022/11/30 00:53:03;;;;;;;;;;;;;;;6.67;55.82;101749.81;5048593;28;20039;-60
2022/11/30 00:55:30;;;;;;;;;;;;;;;6.68;56.03;101751.56;5051394;28;19920;-61
2022/11/30 00:57:55;;;;;;;;;;;;;;;6.70;55.79;101754.19;5053859;28;19960;-59
2022/11/30 01:00:21;;;;;;;;;;;;;;;6.72;55.87;101744.66;5050616;28;20348;-60
2022/11/30 01:02:46;;;;;;;;;;;;;;;6.66;55.96;101751.56;5040757;28;19928;-60
2022/11/30 01:05:11;;;;;;;;;;;;;;;6.72;55.72;101740.31;5052336;28;20288;-61
2022/11/30 01:07:36;;;;;;;;;;;;;;;6.52;56.27;101747.81;5045588;28;19936;-60
2022/11/30 01:10:02;;;;;;;;;;;;;;;6.51;58.03;101751.28;5045167;28;19928;-60
2022/11/30 01:12:27;;;;;;;;;;;;;;;6.41;56.53;101755.47;5038680;28;19928;-59
2022/11/30 01:14:53;;;;;;;;;;;;;;;6.46;56.83;101752.94;5042598;28;20015;-60
2022/11/30 01:17:18;;;;;;;;;;;;;;;6.46;56.60;101755.53;5043257;28;19932;-60
2022/11/30 01:19:43;;;;;;;;;;;;;;;6.45;57.12;101756.41;5039929;28;19925;-60
2022/11/30 01:22:08;;;;;;;;;;;;;;;6.45;57.13;101756.41;5037976;28;19921;-59
2022/11/30 01:24:33;;;;;;;;;;;;;;;6.37;56.65;101756.25;5045405;28;20001;-60
2022/11/30 01:26:59;;;;;;;;;;;;;;;6.45;56.54;101755.53;5046956;28;20034;-59
2022/11/30 01:29:24;;;;;;;;;;;;;;;6.49;56.50;101753.00;5038668;28;19932;-59
2022/11/30 01:31:49;;;;;;;;;;;;;;;6.55;56.52;101758.31;5038627;28;19933;-59
2022/11/30 01:34:15;;;;;;;;;;;;;;;6.51;56.31;101755.66;5047053;28;19925;-60
2022/11/30 01:36:40;;;;;;;;;;;;;;;6.42;56.68;101751.13;5043832;28;20458;-61
2022/11/30 01:39:06;;;;;;;;;;;;;;;6.53;56.44;101762.63;5038495;28;19929;-60
2022/11/30 01:41:32;;;;;;;;;;;;;;;6.52;56.27;101755.66;5036380;28;20020;-59
2022/11/30 01:44:17;;;;;;;;;;;;;;;6.54;56.25;101764.41;5045456;28;19971;-60
2022/11/30 01:46:45;;;;;;;;;;;;;;;6.53;56.48;101761.75;5024434;28;19978;-60
2022/11/30 01:49:17;;;;;;;;;;;;;;;6.53;56.83;101766.97;5054426;28;19975;-61
2022/11/30 01:51:47;;;;;;;;;;;;;;;6.49;56.44;101762.56;5039918;28;19929;-61
2022/11/30 01:54:14;;;;;;;;;;;;;;;6.53;56.41;101767.84;5035396;28;20361;-61
2022/11/30 01:56:42;;;;;;;;;;;;;;;6.63;56.18;101769.78;5054654;28;20406;-61
2022/11/30 01:59:07;;;;;;;;;;;;;;;6.64;56.31;101768.91;5039182;28;19922;-61
2022/11/30 02:01:32;;;;;;;;;;;;;;;6.61;56.11;101763.63;5036141;28;19921;-61
2022/11/30 02:04:00;;;;;;;;;;;;;;;6.63;56.19;101772.38;5035993;28;20285;-61
2022/11/30 02:06:26;;;;;;;;;;;;;;;6.62;56.45;101765.41;5044801;28;19921;-60
2022/11/30 02:08:52;;;;;;;;;;;;;;;6.59;56.56;101761.88;5054508;28;19924;-60
2022/11/30 02:11:17;;;;;;;;;;;;;;;6.57;56.38;101759.22;5055681;28;20330;-60
2022/11/30 02:13:54;;;;;;;;;;;;;;;6.57;56.64;101764.44;5036135;28;19932;-60
2022/11/30 02:16:20;;;;;;;;;;;;;;;6.58;56.57;101762.69;5036035;28;20331;-60
2022/11/30 02:18:52;;;;;;;;;;;;;;;6.62;56.44;101756.69;5039159;28;19921;-61
2022/11/30 02:21:26;;;;;;;;;;;;;;;6.58;56.58;101760.09;5054722;28;19944;-60
2022/11/30 02:24:10;;;;;;;;;;;;;;;6.62;56.51;101765.41;5054840;28;19966;-60
2022/11/30 02:26:38;;;;;;;;;;;;;;;6.67;56.36;101760.25;5051529;28;19960;-61
2022/11/30 02:29:09;;;;;;;;;;;;;;;6.58;56.35;101766.22;5044040;28;19947;-60
2022/11/30 02:31:40;;;;;;;;;;;;;;;6.63;56.47;101761.06;5044995;28;19957;-59
2022/11/30 02:34:08;;;;;;;;;;;;;;;6.48;56.74;101761.69;5043175;28;19921;-60
2022/11/30 02:36:34;;;;;;;;;;;;;;;6.52;56.71;101760.88;5035980;28;20400;-59
2022/11/30 02:38:59;;;;;;;;;;;;;;;6.48;56.73;101766.91;5042538;28;19929;-62
2022/11/30 02:41:25;;;;;;;;;;;;;;;6.47;57.30;101764.28;5050171;28;19925;-60
2022/11/30 02:43:50;;;;;;;;;;;;;;;6.46;57.34;101765.09;5038081;28;19956;-59
2022/11/30 02:46:18;;;;;;;;;;;;;;;6.48;57.05;101768.63;5035429;28;19967;-60
2022/11/30 02:49:04;;;;;;;;;;;;;;;6.52;56.78;101768.72;5044211;28;19920;-60
2022/11/30 02:51:31;;;;;;;;;;;;;;;6.52;56.81;101762.63;5040187;28;20020;-60
2022/11/30 02:53:56;;;;;;;;;;;;;;;6.48;57.09;101768.63;5051640;28;19921;-60
2022/11/30 02:56:22;;;;;;;;;;;;;;;6.53;56.95;101765.25;5048108;28;20392;-60
2022/11/30 02:58:47;;;;;;;;;;;;;;;6.55;56.76;101763.56;5034870;28;19924;-60
2022/11/30 03:01:12;;;;;;;;;;;;;;;6.52;56.79;101766.09;5046646;28;19925;-59
2022/11/30 03:03:37;;;;;;;;;;;;;;;6.60;56.58;101769.72;5054677;28;19920;-59
2022/11/30 03:06:03;;;;;;;;;;;;;;;6.60;56.74;101769.72;5053210;28;19928;-58
2022/11/30 03:08:28;;;;;;;;;;;;;;;6.55;56.58;101781.84;5048972;28;19925;-59
2022/11/30 03:10:53;;;;;;;;;;;;;;;6.63;56.52;101772.38;5048324;28;19932;-59
2022/11/30 03:13:18;;;;;;;;;;;;;;;6.60;56.33;101772.34;5047966;28;20023;-58
2022/11/30 03:15:44;;;;;;;;;;;;;;;6.61;56.44;101781.91;5049198;28;20305;-59
2022/11/30 03:18:09;;;;;;;;;;;;;;;6.53;56.50;101785.25;5034236;28;19944;-59
2022/11/30 03:20:39;;;;;;;;;;;;;;;6.48;56.68;101787.78;5033002;28;20033;-60
2022/11/30 03:23:04;;;;;;;;;;;;;;;6.48;56.65;101790.41;5034101;28;19921;-60
2022/11/30 03:25:29;;;;;;;;;;;;;;;6.57;56.64;101797.50;5035145;28;20269;-60
2022/11/30 03:27:54;;;;;;;;;;;;;;;6.58;56.47;101787.13;5048333;28;19956;-61
2022/11/30 03:30:20;;;;;;;;;;;;;;;6.59;56.56;101798.44;5036582;28;19921;-59
2022/11/30 03:32:45;;;;;;;;;;;;;;;6.34;56.82;101791.88;5045702;28;20373;-61
2022/11/30 03:35:10;;;;;;;;;;;;;;;6.47;56.73;101791.25;5033810;28;20292;-59
2022/11/30 03:37:35;;;;;;;;;;;;;;;6.57;56.50;101795.78;5047903;28;19932;-59
2022/11/30 03:40:01;;;;;;;;;;;;;;;6.58;56.47;101799.25;5042107;28;19987;-61
2022/11/30 03:42:26;;;;;;;;;;;;;;;6.51;56.42;101802.66;5034742;28;19963;-61
2022/11/30 03:44:52;;;;;;;;;;;;;;;6.58;56.31;101796.66;5039343;28;19928;-60
2022/11/30 03:47:17;;;;;;;;;;;;;;;6.61;56.00;101804.53;5053051;28;20027;-60
2022/11/30 03:49:42;;;;;;;;;;;;;;;6.53;56.16;101801.81;5053723;28;20277;-59
2022/11/30 03:52:07;;;;;;;;;;;;;;;6.50;56.31;101812.19;5034612;28;20373;-60
2022/11/30 03:54:33;;;;;;;;;;;;;;;6.55;56.42;101805.34;5036630;28;20359;-61
2022/11/30 03:56:58;;;;;;;;;;;;;;;6.36;57.00;101808.47;5035471;28;20016;-59
2022/11/30 03:59:23;;;;;;;;;;;;;;;6.49;56.39;101806.94;5054142;28;19927;-58
2022/11/30 04:01:48;;;;;;;;;;;;;;;6.46;56.65;101799.94;5046445;28;19925;-59
2022/11/30 04:04:14;;;;;;;;;;;;;;;6.48;56.58;101805.19;5033429;28;19959;-59
2022/11/30 04:06:39;;;;;;;;;;;;;;;6.49;56.52;101809.56;5033568;28;19925;-61
2022/11/30 04:09:05;;;;;;;;;;;;;;;6.50;56.55;101811.31;5032604;28;19931;-59
2022/11/30 04:11:30;;;;;;;;;;;;;;;6.57;55.96;101803.59;5038686;28;19921;-60
2022/11/30 04:13:55;;;;;;;;;;;;;;;6.29;56.40;101803.97;5033554;28;20016;-60
2022/11/30 04:16:20;;;;;;;;;;;;;;;6.48;56.22;101803.47;5032212;28;19932;-60
2022/11/30 04:18:46;;;;;;;;;;;;;;;6.48;56.16;101807.81;5049094;28;20392;-60
2022/11/30 04:21:11;;;;;;;;;;;;;;;6.57;56.12;101813.19;5040554;28;19981;-59
2022/11/30 04:23:38;;;;;;;;;;;;;;;6.31;56.54;101816.22;5053963;28;19928;-59
2022/11/30 04:26:07;;;;;;;;;;;;;;;6.39;56.40;101813.75;5051986;28;19916;-59
2022/11/30 04:28:33;;;;;;;;;;;;;;;6.45;56.48;101813.84;5039407;28;19957;-60
2022/11/30 04:31:01;;;;;;;;;;;;;;;6.47;56.26;101817.38;5033799;28;19952;-60
2022/11/30 04:33:27;;;;;;;;;;;;;;;6.35;56.87;101818.03;5037038;28;20035;-61
2022/11/30 04:35:54;;;;;;;;;;;;;;;6.37;56.63;101810.22;5053592;28;19921;-59
2022/11/30 04:38:19;;;;;;;;;;;;;;;6.38;56.47;101815.47;5051877;28;19921;-59
2022/11/30 04:40:44;;;;;;;;;;;;;;;6.34;56.87;101811.06;5050020;28;19932;-61
2022/11/30 04:43:10;;;;;;;;;;;;;;;6.42;56.69;101811.16;5035022;28;20034;-59
2022/11/30 04:45:36;;;;;;;;;;;;;;;6.38;56.77;101827.63;5037362;28;19933;-60
2022/11/30 04:48:01;;;;;;;;;;;;;;;6.25;56.75;101821.31;5033604;28;19924;-60
2022/11/30 04:50:27;;;;;;;;;;;;;;;6.25;56.97;101825.66;5034640;28;20511;-60
2022/11/30 04:52:52;;;;;;;;;;;;;;;6.21;56.96;101823.84;5033784;28;19972;-59
2022/11/30 04:55:20;;;;;;;;;;;;;;;6.28;57.09;101825.72;5034375;28;19925;-59
2022/11/30 04:57:46;;;;;;;;;;;;;;;6.35;56.84;101825.00;5049569;28;19925;-59
2022/11/30 05:00:12;;;;;;;;;;;;;;;6.39;56.88;101824.19;5049787;28;19924;-60
2022/11/30 05:02:38;;;;;;;;;;;;;;;6.39;56.86;101822.47;5050927;28;19929;-59
2022/11/30 05:05:03;;;;;;;;;;;;;;;6.44;56.85;101827.75;5051295;28;20356;-60
2022/11/30 05:07:28;;;;;;;;;;;;;;;6.53;56.66;101827.91;5051914;28;19978;-60
2022/11/30 05:09:54;;;;;;;;;;;;;;;6.56;56.37;101832.31;5036245;28;19925;-61
2022/11/30 05:12:19;;;;;;;;;;;;;;;6.59;56.41;101828.03;5040969;28;19929;-61
2022/11/30 05:14:44;;;;;;;;;;;;;;;6.56;56.43;101827.97;5045875;28;20016;-59
2022/11/30 05:17:09;;;;;;;;;;;;;;;6.56;56.60;101833.19;5046277;28;20372;-60
2022/11/30 05:19:35;;;;;;;;;;;;;;;6.48;56.75;101836.53;5036464;28;19932;-59
2022/11/30 05:22:00;;;;;;;;;;;;;;;6.48;56.73;101832.19;5044046;28;19972;-59
2022/11/30 05:24:25;;;;;;;;;;;;;;;6.48;56.62;101834.78;5071424;28;19924;-59
2022/11/30 05:26:50;;;;;;;;;;;;;;;6.53;56.77;101838.38;5052776;28;19931;-59
2022/11/30 05:29:15;;;;;;;;;;;;;;;6.49;56.81;101849.59;5050144;28;20014;-59
2022/11/30 05:31:41;;;;;;;;;;;;;;;6.38;56.67;101841.59;5057391;28;19928;-59
2022/11/30 05:34:06;;;;;;;;;;;;;;;6.46;56.81;101852.16;5058144;28;20392;-60
2022/11/30 05:36:31;;;;;;;;;;;;;;;6.48;56.66;101850.47;5063479;28;19925;-59
2022/11/30 05:38:56;;;;;;;;;;;;;;;6.52;57.33;101852.28;5065067;28;19967;-59
2022/11/30 05:41:22;;;;;;;;;;;;;;;6.57;56.60;101853.22;5066951;28;19971;-60
2022/11/30 05:43:47;;;;;;;;;;;;;;;6.63;56.38;101850.75;5042275;28;19927;-60
2022/11/30 05:46:12;;;;;;;;;;;;;;;6.59;56.48;101853.28;5042365;28;20007;-60
2022/11/30 05:48:37;;;;;;;;;;;;;;;6.55;56.65;101861.91;5050386;28;20293;-60
2022/11/30 05:51:07;;;;;;;;;;;;;;;6.51;56.76;101860.97;5035933;28;19929;-59
2022/11/30 05:53:32;;;;;;;;;;;;;;;6.44;56.87;101860.81;5041476;28;19944;-60
2022/11/30 05:56:05;;;;;;;;;;;;;;;6.47;56.86;101853.94;5041764;28;19929;-60
2022/11/30 05:58:30;;;;;;;;;;;;;;;6.37;56.99;101858.09;5045113;28;19921;-60
2022/11/30 06:00:55;;;;;;;;;;;;;;;6.49;56.76;101865.28;5053447;28;19925;-60
2022/11/30 06:03:20;;;;;;;;;;;;;;;6.61;56.67;101868.09;5050966;28;19932;-59
2022/11/30 06:05:48;;;;;;;;;;;;;;;6.50;56.54;101860.91;5042106;28;20062;-61
2022/11/30 06:08:13;;;;;;;;;;;;;;;6.65;56.75;101859.47;5049395;28;19927;-60
2022/11/30 06:10:39;;;;;;;;;;;;;;;6.72;56.51;101862.22;5043126;28;19924;-60
2022/11/30 06:13:08;;;;;;;;;;;;;;;6.69;56.30;101859.53;5038948;28;19925;-61
2022/11/30 06:15:35;;;;;;;;;;;;;;;6.57;56.45;101868.03;5039060;28;19921;-61
2022/11/30 06:18:00;;;;;;;;;;;;;;;6.55;56.63;101872.34;5048633;28;19921;-59
2022/11/30 06:20:25;;;;;;;;;;;;;;;6.49;56.70;101873.09;5045273;28;19925;-60
2022/11/30 06:22:50;;;;;;;;;;;;;;;6.49;57.12;101867.88;5045353;28;19979;-60
2022/11/30 06:25:16;;;;;;;;;;;;;;;6.49;56.78;101873.09;5053380;28;19972;-59
2022/11/30 06:27:42;;;;;;;;;;;;;;;6.50;56.79;101877.47;5051874;28;19936;-61
2022/11/30 06:30:08;;;;;;;;;;;;;;;6.54;56.70;101881.94;5035680;28;19921;-59
2022/11/30 06:32:33;;;;;;;;;;;;;;;6.59;56.60;101885.50;5035485;28;19924;-60
2022/11/30 06:34:58;;;;;;;;;;;;;;;6.60;56.56;101889.84;5035148;28;19927;-58
2022/11/30 06:37:24;;;;;;;;;;;;;;;6.60;56.40;101892.47;5038009;28;19949;-59
2022/11/30 06:39:49;;;;;;;;;;;;;;;6.51;56.58;101894.03;5052187;28;19928;-59
2022/11/30 06:42:14;;;;;;;;;;;;;;;6.48;56.78;101892.25;5055141;28;19917;-60
2022/11/30 06:44:39;;;;;;;;;;;;;;;6.40;56.92;101888.59;5055206;28;19920;-60
2022/11/30 06:47:05;;;;;;;;;;;;;;;6.46;56.95;101898.28;5055284;28;19927;-60
2022/11/30 06:49:30;;;;;;;;;;;;;;;6.47;57.16;101894.84;5055139;28;20340;-60
2022/11/30 06:51:55;;;;;;;;;;;;;;;6.57;56.74;101897.63;5055232;28;19932;-60
2022/11/30 06:54:21;;;;;;;;;;;;;;;6.59;56.40;101906.38;5055144;28;20319;-59
2022/11/30 06:56:47;;;;;;;;;;;;;;;6.52;56.41;101899.28;5055117;28;19921;-58
2022/11/30 06:59:12;;;;;;;;;;;;;;;6.55;56.52;101899.34;5055321;28;19932;-60
2022/11/30 07:01:37;;;;;;;;;;;;;;;6.53;56.39;101906.25;5054918;28;20343;-60
2022/11/30 07:04:02;;;;;;;;;;;;;;;6.62;56.57;101908.16;5054757;28;19964;-60
2022/11/30 07:06:28;;;;;;;;;;;;;;;6.61;56.50;101911.63;5055134;28;19924;-60
2022/11/30 07:08:53;;;;;;;;;;;;;;;6.62;56.43;101913.38;5052903;28;19917;-60
2022/11/30 07:11:18;;;;;;;;;;;;;;;6.61;56.41;101914.25;5052754;28;20416;-61
2022/11/30 07:13:44;;;;;;;;;;;;;;;6.46;56.60;101909.59;5054142;28;19917;-60
2022/11/30 07:16:10;;;;;;;;;;;;;;;6.51;56.55;101923.66;5048454;28;19924;-60
2022/11/30 07:18:35;;;;;;;;;;;;;;;6.57;56.45;101923.75;5054448;28;20284;-60
2022/11/30 07:21:01;;;;;;;;;;;;;;;6.60;56.37;101922.94;5050627;28;20399;-60
2022/11/30 07:26:11;;;;;;;;;;;;;;;6.60;56.25;101923.81;5052044;28;19977;-60
2022/11/30 07:28:45;;;;;;;;;;;;;;;6.63;56.11;101929.09;5054343;28;19921;-60
2022/11/30 07:31:18;;;;;;;;;;;;;;;6.63;56.11;101928.22;5068942;28;20308;-60
2022/11/30 07:33:43;;;;;;;;;;;;;;;6.39;56.60;101933.84;5060888;28;19917;-60
2022/11/30 07:36:09;;;;;;;;;;;;;;;6.50;56.43;101932.31;5073099;28;19947;-60
2022/11/30 07:38:34;;;;;;;;;;;;;;;6.55;56.53;101927.19;5062656;28;19960;-60
2022/11/30 07:40:59;;;;;;;;;;;;;;;6.57;56.47;101926.34;5054103;28;19927;-60
2022/11/30 07:43:26;;;;;;;;;;;;;;;6.57;56.36;101925.47;5034382;28;20297;-60
2022/11/30 07:45:52;;;;;;;;;;;;;;;6.70;56.28;101926.59;5033973;28;19967;-60
2022/11/30 07:48:17;;;;;;;;;;;;;;;6.66;56.19;101934.38;5034394;28;20277;-60
2022/11/30 07:50:43;;;;;;;;;;;;;;;6.75;56.06;101936.28;5033018;28;19921;-59
2022/11/30 07:53:08;;;;;;;;;;;;;;;6.82;56.07;101932.94;5033935;28;19929;-60
2022/11/30 07:55:33;;;;;;;;;;;;;;;6.83;55.85;101939.06;5033489;28;19921;-60
2022/11/30 07:57:58;;;;;;;;;;;;;;;6.73;56.04;101942.34;5033807;28;19940;-61
2022/11/30 08:00:24;;;;;;;;;;;;;;;6.78;56.08;101936.34;5050688;28;20342;-60
2022/11/30 08:02:49;;;;;;;;;;;;;;;6.81;55.99;101932.91;5054610;28;19987;-59
2022/11/30 08:05:15;;;;;;;;;;;;;;;6.90;55.98;101933.97;5053985;28;19921;-60
2022/11/30 08:07:40;;;;;;;;;;;;;;;6.91;55.67;101932.22;5053841;28;19921;-60
2022/11/30 08:10:06;;;;;;;;;;;;;;;6.97;55.63;101932.31;5053963;28;19940;-60
2022/11/30 08:12:31;;;;;;;;;;;;;;;6.94;55.57;101934.88;5053691;28;19927;-61
2022/11/30 08:14:56;;;;;;;;;;;;;;;6.97;55.89;101939.28;5053706;28;19998;-59
2022/11/30 08:17:21;;;;;;;;;;;;;;;7.05;55.81;101940.31;5053935;28;19921;-59
2022/11/30 08:19:47;;;;;;;;;;;;;;;7.02;55.30;101940.25;5053848;28;19921;-59
2022/11/30 08:22:12;;;;;;;;;;;;;;;6.87;55.46;101943.47;5052332;28;19925;-58
2022/11/30 08:24:37;;;;;;;;;;;;;;;6.86;55.49;101947.81;5053746;28;19924;-60
2022/11/30 08:27:02;;;;;;;;;;;;;;;6.79;55.88;101945.06;5053687;28;20293;-59
2022/11/30 08:29:27;;;;;;;;;;;;;;;6.84;55.77;101953.88;5053510;28;19948;-60
2022/11/30 08:31:53;;;;;;;;;;;;;;;6.88;55.97;101945.22;5053753;28;19921;-60
2022/11/30 08:34:19;;;;;;;;;;;;;;;6.94;55.67;101945.31;5053628;28;19967;-60
2022/11/30 08:36:44;;;;;;;;;;;;;;;6.93;55.88;101951.41;5053526;28;19928;-60
2022/11/30 08:39:10;;;;;;;;;;;;;;;6.92;55.82;101952.28;5053755;28;20058;-60
2022/11/30 08:41:37;;;;;;;;;;;;;;;6.93;56.55;101954.03;5053565;28;19963;-59
2022/11/30 08:44:03;;;;;;;;;;;;;;;6.90;55.71;101959.19;5053484;28;19917;-60
2022/11/30 08:46:28;;;;;;;;;;;;;;;6.98;55.64;101956.72;5049202;28;19924;-61
2022/11/30 08:48:53;;;;;;;;;;;;;;;6.97;55.48;101965.41;5051970;28;19986;-59
2022/11/30 08:51:19;;;;;;;;;;;;;;;6.92;55.25;101954.88;5037959;28;19925;-59
2022/11/30 08:53:45;;;;;;;;;;;;;;;6.99;55.63;101964.59;5032495;28;19949;-59
2022/11/30 08:56:12;;;;;;;;;;;;;;;7.00;55.38;101962.88;5044189;28;19921;-59
2022/11/30 08:58:38;;;;;;;;;;;;;;;7.04;60.39;101962.94;5046469;28;19929;-59
2022/11/30 09:01:07;;;;;;;;;;;;;;;6.98;55.62;101967.16;5035478;28;19921;-59
2022/11/30 09:03:32;;;;;;;;;;;;;;;7.22;55.61;101961.50;5049317;28;19964;-60
2022/11/30 09:06:04;;;;;;;;;;;;;;;7.29;55.47;101963.38;5037272;28;19968;-59
2022/11/30 09:08:30;;;;;;;;;;;;;;;7.52;56.62;101967.25;5049960;28;19925;-58
2022/11/30 09:10:56;;;;;;;;;;;;;;;7.51;54.52;101969.84;5036710;28;19975;-60
2022/11/30 09:13:21;;;;;;;;;;;;;;;7.55;54.31;101964.69;5035946;28;20332;-58
2022/11/30 09:15:52;;;;;;;;;;;;;;;7.50;54.98;101966.38;5041922;28;19925;-58
2022/11/30 09:18:17;;;;;;;;;;;;;;;7.36;54.22;101965.25;5036918;28;20397;-59
2022/11/30 09:20:43;;;;;;;;;;;;;;;7.45;53.93;101968.00;5041184;28;19921;-59
2022/11/30 09:23:08;;;;;;;;;;;;;;;7.47;60.87;101968.91;5056875;28;20435;-58
2022/11/30 09:25:33;;;;;;;;;;;;;;;7.57;61.31;101965.56;5056637;28;19920;-58
2022/11/30 09:27:58;;;;;;;;;;;;;;;7.77;53.98;101968.50;5056886;28;19920;-58
2022/11/30 09:30:24;;;;;;;;;;;;;;;7.50;53.87;101961.13;5056749;28;19974;-58
2022/11/30 09:32:49;;;;;;;;;;;;;;;7.51;56.27;101970.72;5056806;28;20006;-59
2022/11/30 09:35:14;;;;;;;;;;;;;;;7.69;53.91;101977.09;5056487;28;19921;-59
2022/11/30 09:37:40;;;;;;;;;;;;;;;7.78;53.84;101975.53;5057090;28;20390;-59
2022/11/30 09:40:05;;;;;;;;;;;;;;;7.68;53.28;101970.13;5056806;28;19921;-59
2022/11/30 09:42:31;;;;;;;;;;;;;;;7.60;53.27;101976.09;5055550;28;20287;-59
2022/11/30 09:45:01;;;;;;;;;;;;;;;7.46;54.13;101964.56;5056635;28;19920;-59
2022/11/30 09:47:39;;;;;;;;;;;;;;;7.60;53.97;101968.25;5056676;28;19917;-59
2022/11/30 09:50:11;;;;;;;;;;;;;;;7.74;53.58;101963.25;5056732;28;19963;-59
2022/11/30 09:52:40;;;;;;;;;;;;;;;7.65;53.40;101971.81;5056476;28;19972;-59
2022/11/30 09:55:09;;;;;;;;;;;;;;;7.52;53.64;101961.16;5056544;28;19999;-59
2022/11/30 09:57:46;;;;;;;;;;;;;;;7.47;53.62;101961.06;5056401;28;19923;-59
2022/11/30 10:00:14;;;;;;;;;;;;;;;7.48;53.58;101960.22;5056202;28;19967;-59
2022/11/30 10:02:39;;;;;;;;;;;;;;;7.50;53.81;101955.91;5056114;28;19924;-58
2022/11/30 10:05:12;;;;;;;;;;;;;;;7.48;53.90;101960.22;5055956;28;19924;-58
2022/11/30 10:07:49;;;;;;;;;;;;;;;7.56;53.80;101961.22;5056177;28;19916;-59
2022/11/30 10:10:24;;;;;;;;;;;;;;;7.71;53.79;101967.56;5056427;28;19917;-59
2022/11/30 10:12:55;;;;;;;;;;;;;;;7.80;53.51;101967.69;5055792;28;19986;-58
2022/11/30 10:15:20;;;;;;;;;;;;;;;7.85;52.99;101959.03;5055101;28;20364;-59
2022/11/30 10:17:52;;;;;;;;;;;;;;;7.90;53.13;101975.69;5055956;28;19917;-58
2022/11/30 10:20:23;;;;;;;;;;;;;;;7.85;53.34;101966.88;5055975;28;19924;-58
2022/11/30 10:22:58;;;;;;;;;;;;;;;7.97;54.58;101966.19;5055680;28;20304;-58
2022/11/30 10:25:49;;;;;;;;;;;;;;;7.98;53.10;101960.13;5055806;28;19977;-58
2022/11/30 10:28:24;;;;;;;;;;;;;;;8.05;51.97;101963.66;5055659;28;19980;-59
2022/11/30 10:30:50;;;;;;;;;;;;;;;7.84;53.08;101959.03;5055572;28;19999;-57
2022/11/30 10:33:19;;;;;;;;;;;;;;;7.96;52.89;101967.03;5055583;28;20436;-58
2022/11/30 10:35:44;;;;;;;;;;;;;;;7.71;52.38;101972.78;5055328;28;19917;-59
2022/11/30 10:38:19;;;;;;;;;;;;;;;7.84;52.63;101969.50;5055329;28;19962;-66
2022/11/30 10:40:48;;;;;;;;;;;;;;;7.89;52.98;101967.81;5054956;28;19971;-60
2022/11/30 10:43:19;;;;;;;;;;;;;;;7.93;52.78;101980.09;5054435;28;19928;-65
2022/11/30 10:45:46;;;;;;;;;;;;;;;7.79;52.51;101972.03;5055370;28;19923;-57
2022/11/30 10:48:15;;;;;;;;;;;;;;;7.72;53.67;101969.31;5054107;28;20285;-59
2022/11/30 10:50:40;;;;;;;;;;;;;;;7.89;53.03;101970.44;5054165;28;19917;-60
2022/11/30 10:53:09;;;;;;;;;;;;;;;7.86;52.47;101973.03;5054881;28;19925;-60
2022/11/30 10:55:47;;;;;;;;;;;;;;;7.76;53.18;101968.50;5054932;28;19917;-61
2022/11/30 10:58:21;;;;;;;;;;;;;;;7.72;52.72;101964.94;5051572;28;19924;-60
2022/11/30 11:00:54;;;;;;;;;;;;;;;7.67;53.07;101970.97;5046627;28;19927;-59
2022/11/30 11:03:23;;;;;;;;;;;;;;;7.88;52.86;101966.06;5046842;28;19932;-59
2022/11/30 11:06:01;;;;;;;;;;;;;;;7.83;53.07;101963.38;5054116;28;19935;-60
2022/11/30 11:08:27;;;;;;;;;;;;;;;7.81;53.30;101958.97;5043416;28;19928;-60
2022/11/30 11:10:52;;;;;;;;;;;;;;;7.84;52.10;101969.50;5049049;28;19921;-60
2022/11/30 11:13:18;;;;;;;;;;;;;;;7.83;51.99;101970.34;5056666;28;19924;-60
2022/11/30 11:16:03;;;;;;;;;;;;;;;7.91;53.29;101960.88;5067818;28;19916;-60
2022/11/30 11:18:29;;;;;;;;;;;;;;;7.85;53.58;101956.41;5071702;28;19920;-61
2022/11/30 11:21:03;;;;;;;;;;;;;;;7.88;52.30;101955.59;5054094;28;20522;-59
2022/11/30 11:23:31;;;;;;;;;;;;;;;7.76;52.53;101961.53;5043624;28;19917;-60
2022/11/30 11:25:56;;;;;;;;;;;;;;;7.57;52.87;101962.09;5037331;28;19962;-60
2022/11/30 11:28:23;;;;;;;;;;;;;;;7.53;52.51;101966.38;5038795;28;19925;-60
2022/11/30 11:30:50;;;;;;;;;;;;;;;7.59;52.56;101966.50;5039254;28;19925;-60
2022/11/30 11:33:23;;;;;;;;;;;;;;;7.63;53.18;101965.69;5044112;28;19920;-60
2022/11/30 11:36:11;;;;;;;;;;;;;;;7.65;52.72;101969.19;5054202;28;19923;-59
2022/11/30 11:38:40;;;;;;;;;;;;;;;7.63;52.58;101975.28;5049655;28;19971;-59
2022/11/30 11:41:11;;;;;;;;;;;;;;;7.63;53.03;101970.06;5034017;28;19921;-62
2022/11/30 11:43:54;;;;;;;;;;;;;;;7.70;52.89;101971.00;5034566;28;19917;-59
2022/11/30 11:46:19;;;;;;;;;;;;;;;7.64;52.96;101967.44;5034401;28;20316;-60
2022/11/30 11:48:47;;;;;;;;;;;;;;;7.69;52.73;101969.25;5034584;28;19921;-60
2022/11/30 11:51:13;;;;;;;;;;;;;;;7.63;52.76;101964.81;5032971;28;19933;-59
2022/11/30 11:53:38;;;;;;;;;;;;;;;7.56;52.71;101958.59;5034100;28;19921;-60
2022/11/30 11:56:09;;;;;;;;;;;;;;;7.59;52.56;101965.63;5033443;28;20216;-61
2022/11/30 11:58:48;;;;;;;;;;;;;;;7.48;53.21;101965.44;5034297;28;19920;-59
2022/11/30 12:01:32;;;;;;;;;;;;;;;7.57;53.17;101962.09;5033365;28;20277;-59
2022/11/30 12:04:17;;;;;;;;;;;;;;;7.48;52.94;101964.56;5034255;28;19917;-60
2022/11/30 12:06:44;;;;;;;;;;;;;;;7.52;53.02;101967.25;5029884;28;19984;-59
2022/11/30 12:09:21;;;;;;;;;;;;;;;7.39;53.22;101970.53;5036338;28;19928;-60
2022/11/30 12:11:47;;;;;;;;;;;;;;;7.34;53.35;101961.72;5050377;28;19921;-60
2022/11/30 12:14:13;;;;;;;;;;;;;;;7.39;53.55;101968.78;5047297;28;19960;-60
2022/11/30 12:16:47;;;;;;;;;;;;;;;7.35;53.99;101968.72;5053943;28;19916;-60
2022/11/30 12:19:20;;;;;;;;;;;;;;;7.21;53.15;101970.19;5054013;28;19924;-60
2022/11/30 12:21:48;;;;;;;;;;;;;;;7.38;54.47;101968.75;5043109;28;19917;-51
2022/11/30 12:24:28;;;;;;;;;;;;;;;7.42;53.33;101973.22;5042567;28;19924;-58
2022/11/30 12:27:14;;;;;;;;;;;;;;;7.41;53.34;101976.66;5053471;28;20339;-57
2022/11/30 12:29:39;;;;;;;;;;;;;;;7.55;53.10;101977.78;5022489;28;20015;-56
2022/11/30 12:32:23;;;;;;;;;;;;;;;7.44;52.74;101984.56;5033226;28;20278;-57
2022/11/30 12:34:59;;;;;;;;;;;;;;;7.16;53.27;101989.31;5033539;28;19975;-55
2022/11/30 12:37:45;;;;;;;;;;;;;;;7.24;53.21;101991.19;5032410;28;19963;-53
2022/11/30 12:40:13;;;;;;;;;;;;;;;7.37;53.98;101993.16;5037457;28;19921;-55
2022/11/30 12:42:57;;;;;;;;;;;;;;;7.43;53.32;101990.66;5056373;28;19963;-54
2022/11/30 12:45:27;;;;;;;;;;;;;;;7.47;53.17;101983.75;5057380;28;19921;-54
2022/11/30 12:48:01;;;;;;;;;;;;;;;7.50;52.79;101992.53;5056203;28;20060;-54
2022/11/30 12:50:29;;;;;;;;;;;;;;;7.52;53.02;101989.91;5057751;28;19916;-54
2022/11/30 12:53:04;;;;;;;;;;;;;;;7.54;52.97;101986.47;5057378;28;19920;-55